Holly Ann — WDE9094 — position and weather

sailwx.info

Track history (hours):
 
Tides and Currents Weather Stations Pressure Air Temp Water Temp Dewpoint Dewpoint Depression Visibility Wind Speed Wind Dir Waves Ship Positions

Holly Ann

Owner: Manke Tug and Barge Co., Inc., Shelton, WA. More information available from US FCC via Universal Licensing System and Coast Guard Vessel Documentation Center.

Last reported at 2018-Apr-21 03:42 UTC. Time now 2018-Apr-23 11:39 UTC.
Position N 47°13' W 123°05'.

; draft 4.5 m.

Type: Towing. MMSI: 367413350.

Date/timePositionNaut miles runAvg speedWind from/ knotsBaromVisibWave heightAir tempDewpointWater temp
2018-Apr-21 03:42N 47°13' W 123°05'0 1.0
2018-Apr-21 03:27N 47°13' W 123°04'4 8.1
2018-Apr-21 03:00N 47°12' W 122°59'3 5.5
2018-Apr-21 02:30N 47°11' W 122°56'5 8.1
2018-Apr-21 01:55N 47°11' W 122°49'6 8.7
2018-Apr-21 01:12N 47°08' W 122°41'2 6.0
2018-Apr-21 00:56N 47°09' W 122°39'2 5.6
2018-Apr-21 00:30N 47°11' W 122°38'4 9.0
2018-Apr-21 00:00N 47°15' W 122°34'510.3
2018-Apr-20 23:30N 47°20' W 122°33'4 7.9
2018-Apr-20 23:00N 47°24' W 122°32'4 7.4
2018-Apr-20 22:30N 47°27' W 122°31'4 7.3
2018-Apr-20 22:00N 47°31' W 122°29'4 7.8
2018-Apr-20 21:30N 47°34' W 122°26'3 6.7
2018-Apr-20 21:00N 47°35' W 122°22'1 2.7
2018-Apr-20 20:30N 47°34' W 122°21'0 0.0
2018-Apr-20 20:00N 47°34' W 122°21'0 0.0
2018-Apr-20 19:30N 47°34' W 122°21'0 0.0
2018-Apr-20 19:00N 47°34' W 122°21'0 0.0
2018-Apr-20 18:30N 47°34' W 122°21'0 0.0
2018-Apr-20 18:00N 47°34' W 122°21'0 0.0
2018-Apr-20 17:30N 47°34' W 122°21'0 0.0
2018-Apr-20 17:00N 47°34' W 122°21'0 0.0
2018-Apr-20 16:30N 47°34' W 122°21'0 0.0
2018-Apr-20 16:00N 47°34' W 122°21'0 0.0
2018-Apr-20 15:30N 47°34' W 122°21'0 0.0
2018-Apr-20 15:00N 47°34' W 122°21'0 0.0
2018-Apr-20 14:30N 47°34' W 122°21'0 0.0
2018-Apr-20 14:00N 47°34' W 122°21'0 0.0
2018-Apr-20 13:30N 47°34' W 122°21'0 0.0
2018-Apr-20 13:00N 47°34' W 122°21'0 0.0
2018-Apr-20 12:30N 47°34' W 122°21'0 0.0
2018-Apr-20 12:00N 47°34' W 122°21'0 0.0
2018-Apr-20 11:30N 47°34' W 122°21'1 1.8
2018-Apr-20 11:00N 47°35' W 122°22'2 3.3
2018-Apr-20 10:30N 47°36' W 122°23'3 6.7
2018-Apr-20 10:00N 47°34' W 122°27'4 7.2
2018-Apr-20 09:30N 47°30' W 122°29'4 8.1
2018-Apr-20 09:00N 47°27' W 122°31'4 7.7
2018-Apr-20 08:30N 47°23' W 122°32'4 8.3
2018-Apr-20 07:58N 47°18' W 122°33'4 9.2
2018-Apr-20 07:30N 47°14' W 122°35'4 7.9
2018-Apr-20 07:00N 47°12' W 122°39'9 6.7
2018-Apr-20 05:36N 47°10' W 122°52'3 6.8
2018-Apr-20 05:14N 47°11' W 122°56'1 6.1
2018-Apr-20 05:00N 47°12' W 122°56'2 3.9
2018-Apr-20 04:30N 47°12' W 122°59'2 3.0
2018-Apr-20 04:00N 47°12' W 123°01'2 4.1
2018-Apr-20 03:30N 47°12' W 123°04'1 0.0
2018-Apr-19 02:27N 47°13' W 123°05'2 5.3
2018-Apr-19 02:00N 47°12' W 123°01'4 8.0
2018-Apr-19 01:30N 47°12' W 122°56'11 7.2
2018-Apr-18 23:55N 47°12' W 122°39'410.4
2018-Apr-18 23:30N 47°15' W 122°34'611.9
2018-Apr-18 23:00N 47°20' W 122°33'4 8.3
2018-Apr-18 22:30N 47°25' W 122°32'4 8.2
2018-Apr-18 22:00N 47°29' W 122°31'4 8.1
2018-Apr-18 21:30N 47°32' W 122°28'5 9.3
2018-Apr-18 21:00N 47°36' W 122°24'3 6.8
2018-Apr-18 20:30N 47°33' W 122°21'0 0.0
2018-Apr-18 20:00N 47°33' W 122°21'0 0.0
2018-Apr-18 19:30N 47°33' W 122°21'0 0.0
2018-Apr-18 18:57N 47°33' W 122°21'0 0.0
2018-Apr-18 18:30N 47°33' W 122°21'0 0.0
2018-Apr-18 18:00N 47°33' W 122°21'0 0.0
2018-Apr-18 17:30N 47°33' W 122°21'0 0.0
2018-Apr-18 17:00N 47°33' W 122°21'0 0.0
2018-Apr-18 16:30N 47°33' W 122°21'0 0.0
2018-Apr-18 16:00N 47°33' W 122°21'0 0.0
2018-Apr-18 15:30N 47°33' W 122°21'2 4.2
2018-Apr-18 15:00N 47°35' W 122°21'0 0.0
2018-Apr-18 14:30N 47°35' W 122°21'0 0.0
2018-Apr-18 14:00N 47°35' W 122°21'2 4.0
2018-Apr-18 13:30N 47°33' W 122°21'0 0.1
2018-Apr-18 13:00N 47°33' W 122°21'0 0.0
2018-Apr-18 12:30N 47°33' W 122°21'0 0.0
2018-Apr-18 12:00N 47°33' W 122°21'0 0.0
2018-Apr-18 11:30N 47°33' W 122°21'0 0.0
2018-Apr-18 11:00N 47°33' W 122°21'0 0.0
2018-Apr-18 10:30N 47°33' W 122°21'0 0.0
2018-Apr-18 10:00N 47°33' W 122°21'2 3.2
2018-Apr-18 09:30N 47°35' W 122°22'2 3.5
2018-Apr-18 09:00N 47°36' W 122°24'3 6.0
2018-Apr-18 08:30N 47°34' W 122°26'4 7.3
2018-Apr-18 08:00N 47°31' W 122°29'4 8.0
2018-Apr-18 07:30N 47°27' W 122°31'4 7.7
2018-Apr-18 07:00N 47°23' W 122°32'4 8.5
2018-Apr-18 06:30N 47°19' W 122°33'4 8.9
2018-Apr-18 06:00N 47°14' W 122°35'4 7.1
2018-Apr-18 05:30N 47°12' W 122°38'10 6.6
2018-Apr-18 03:59N 47°10' W 122°53'3 6.2
2018-Apr-18 03:29N 47°12' W 122°56'2 3.8
2018-Apr-18 03:00N 47°12' W 122°58'1 3.0
2018-Apr-18 02:30N 47°12' W 123°01'2 4.0
2018-Apr-18 02:00N 47°12' W 123°03'1 2.3
2018-Apr-18 01:30N 47°13' W 123°05'0 0.0
2018-Apr-17 13:21N 47°13' W 123°05'0 0.1
2018-Apr-17 13:00N 47°13' W 123°05'  
2018-Apr-13 17:51N 47°13' W 123°05'0 0.8
2018-Apr-13 17:30N 47°13' W 123°04'0 0.0
2018-Apr-13 11:16N 47°13' W 123°05'0 0.9
2018-Apr-13 11:00N 47°13' W 123°04'3 5.8
2018-Apr-13 10:30N 47°12' W 123°00'3 6.2
2018-Apr-13 10:00N 47°11' W 122°56'11 7.3
2018-Apr-13 08:27N 47°11' W 122°39'4 9.1
2018-Apr-13 08:00N 47°14' W 122°35'511.0
2018-Apr-13 07:30N 47°19' W 122°33'4 8.4
2018-Apr-13 07:00N 47°23' W 122°32'4 8.1
2018-Apr-13 06:30N 47°27' W 122°31'4 7.9
2018-Apr-13 06:00N 47°31' W 122°29'4 8.3
2018-Apr-13 05:31N 47°35' W 122°26'3 5.7
2018-Apr-13 05:00N 47°35' W 122°22'1 2.8
2018-Apr-13 04:30N 47°33' W 122°21'0 0.0
2018-Apr-13 04:00N 47°33' W 122°21'0 0.0
2018-Apr-13 03:14N 47°33' W 122°21'0 0.0
2018-Apr-13 02:59N 47°33' W 122°21'0 0.0
2018-Apr-13 02:30N 47°33' W 122°21'0 0.0
2018-Apr-13 02:00N 47°33' W 122°21'0 0.0
2018-Apr-13 01:28N 47°33' W 122°21'0 0.0
2018-Apr-13 01:00N 47°33' W 122°21'0 0.0
2018-Apr-13 00:30N 47°33' W 122°21'0 0.0
2018-Apr-12 23:59N 47°33' W 122°21'0 0.0
2018-Apr-12 23:30N 47°33' W 122°21'0 0.0
2018-Apr-12 23:00N 47°33' W 122°21'0 0.0
2018-Apr-12 22:28N 47°33' W 122°21'0 0.0
2018-Apr-12 22:00N 47°33' W 122°21'0 0.0
2018-Apr-12 21:30N 47°33' W 122°21'0 0.0
2018-Apr-12 21:00N 47°33' W 122°21'0 0.0
2018-Apr-12 20:29N 47°33' W 122°21'0 0.0
2018-Apr-12 20:00N 47°33' W 122°21'0 0.1
2018-Apr-12 19:30N 47°33' W 122°21'1 2.1
2018-Apr-12 19:00N 47°34' W 122°21'2 3.1
2018-Apr-12 18:30N 47°36' W 122°22'2 4.0
2018-Apr-12 18:00N 47°35' W 122°25'2 4.8
2018-Apr-12 17:30N 47°33' W 122°27'3 5.7
2018-Apr-12 17:00N 47°30' W 122°29'3 6.4
2018-Apr-12 16:30N 47°27' W 122°31'3 6.4
2018-Apr-12 16:00N 47°24' W 122°32'3 6.7
2018-Apr-12 15:30N 47°21' W 122°33'4 7.9
2018-Apr-12 15:00N 47°17' W 122°33'4 8.2
2018-Apr-12 14:31N 47°13' W 122°35'12 5.8
2018-Apr-12 12:23N 47°10' W 122°52'2 6.3
2018-Apr-12 12:00N 47°11' W 122°56'2 3.9
2018-Apr-12 11:30N 47°12' W 122°58'2 3.9
2018-Apr-12 11:00N 47°12' W 123°00'2 4.8
2018-Apr-12 10:30N 47°12' W 123°04'1 0.0
2018-Apr-11 08:34N 47°13' W 123°05'0 1.5
2018-Apr-11 08:30N 47°13' W 123°05'3 6.2
2018-Apr-11 08:00N 47°12' W 123°00'3 6.1
2018-Apr-11 07:30N 47°12' W 122°56'11 6.7
2018-Apr-11 05:50N 47°11' W 122°39'3 9.1
2018-Apr-11 05:30N 47°13' W 122°36'5 9.9
2018-Apr-11 05:00N 47°18' W 122°33'4 8.5
2018-Apr-11 04:30N 47°22' W 122°32'4 7.9
2018-Apr-11 04:00N 47°26' W 122°31'  
Track history (hours):
 
Tides and Currents Weather Stations Pressure Air Temp Water Temp Dewpoint Dewpoint Depression Visibility Wind Speed Wind Dir Waves Ship Positions

Holly Ann

Owner: Manke Tug and Barge Co., Inc., Shelton, WA. More information available from US FCC via Universal Licensing System and Coast Guard Vessel Documentation Center.

Last reported at 2018-Apr-21 03:42 UTC. Time now 2018-Apr-23 11:39 UTC.
Position N 47°13' W 123°05'.

; draft 4.5 m.

Type: Towing. MMSI: 367413350.

Date/timePositionNaut miles runAvg speedWind from/ knotsBaromVisibWave heightAir tempDewpointWater temp
2018-Apr-21 03:42N 47°13' W 123°05'0 1.0
2018-Apr-21 03:27N 47°13' W 123°04'4 8.1
2018-Apr-21 03:00N 47°12' W 122°59'3 5.5
2018-Apr-21 02:30N 47°11' W 122°56'5 8.1
2018-Apr-21 01:55N 47°11' W 122°49'6 8.7
2018-Apr-21 01:12N 47°08' W 122°41'2 6.0
2018-Apr-21 00:56N 47°09' W 122°39'2 5.6
2018-Apr-21 00:30N 47°11' W 122°38'4 9.0
2018-Apr-21 00:00N 47°15' W 122°34'510.3
2018-Apr-20 23:30N 47°20' W 122°33'4 7.9
2018-Apr-20 23:00N 47°24' W 122°32'4 7.4
2018-Apr-20 22:30N 47°27' W 122°31'4 7.3
2018-Apr-20 22:00N 47°31' W 122°29'4 7.8
2018-Apr-20 21:30N 47°34' W 122°26'3 6.7
2018-Apr-20 21:00N 47°35' W 122°22'1 2.7
2018-Apr-20 20:30N 47°34' W 122°21'0 0.0
2018-Apr-20 20:00N 47°34' W 122°21'0 0.0
2018-Apr-20 19:30N 47°34' W 122°21'0 0.0
2018-Apr-20 19:00N 47°34' W 122°21'0 0.0
2018-Apr-20 18:30N 47°34' W 122°21'0 0.0
2018-Apr-20 18:00N 47°34' W 122°21'0 0.0
2018-Apr-20 17:30N 47°34' W 122°21'0 0.0
2018-Apr-20 17:00N 47°34' W 122°21'0 0.0
2018-Apr-20 16:30N 47°34' W 122°21'0 0.0
2018-Apr-20 16:00N 47°34' W 122°21'0 0.0
2018-Apr-20 15:30N 47°34' W 122°21'0 0.0
2018-Apr-20 15:00N 47°34' W 122°21'0 0.0
2018-Apr-20 14:30N 47°34' W 122°21'0 0.0
2018-Apr-20 14:00N 47°34' W 122°21'0 0.0
2018-Apr-20 13:30N 47°34' W 122°21'0 0.0
2018-Apr-20 13:00N 47°34' W 122°21'0 0.0
2018-Apr-20 12:30N 47°34' W 122°21'0 0.0
2018-Apr-20 12:00N 47°34' W 122°21'0 0.0
2018-Apr-20 11:30N 47°34' W 122°21'1 1.8
2018-Apr-20 11:00N 47°35' W 122°22'2 3.3
2018-Apr-20 10:30N 47°36' W 122°23'3 6.7
2018-Apr-20 10:00N 47°34' W 122°27'4 7.2
2018-Apr-20 09:30N 47°30' W 122°29'4 8.1
2018-Apr-20 09:00N 47°27' W 122°31'4 7.7
2018-Apr-20 08:30N 47°23' W 122°32'4 8.3
2018-Apr-20 07:58N 47°18' W 122°33'4 9.2
2018-Apr-20 07:30N 47°14' W 122°35'4 7.9
2018-Apr-20 07:00N 47°12' W 122°39'9 6.7
2018-Apr-20 05:36N 47°10' W 122°52'3 6.8
2018-Apr-20 05:14N 47°11' W 122°56'1 6.1
2018-Apr-20 05:00N 47°12' W 122°56'2 3.9
2018-Apr-20 04:30N 47°12' W 122°59'2 3.0
2018-Apr-20 04:00N 47°12' W 123°01'2 4.1
2018-Apr-20 03:30N 47°12' W 123°04'1 0.0
2018-Apr-19 02:27N 47°13' W 123°05'2 5.3
2018-Apr-19 02:00N 47°12' W 123°01'4 8.0
2018-Apr-19 01:30N 47°12' W 122°56'11 7.2
2018-Apr-18 23:55N 47°12' W 122°39'410.4
2018-Apr-18 23:30N 47°15' W 122°34'611.9
2018-Apr-18 23:00N 47°20' W 122°33'4 8.3
2018-Apr-18 22:30N 47°25' W 122°32'4 8.2
2018-Apr-18 22:00N 47°29' W 122°31'4 8.1
2018-Apr-18 21:30N 47°32' W 122°28'5 9.3
2018-Apr-18 21:00N 47°36' W 122°24'3 6.8
2018-Apr-18 20:30N 47°33' W 122°21'0 0.0
2018-Apr-18 20:00N 47°33' W 122°21'0 0.0
2018-Apr-18 19:30N 47°33' W 122°21'0 0.0
2018-Apr-18 18:57N 47°33' W 122°21'0 0.0
2018-Apr-18 18:30N 47°33' W 122°21'0 0.0
2018-Apr-18 18:00N 47°33' W 122°21'0 0.0
2018-Apr-18 17:30N 47°33' W 122°21'0 0.0
2018-Apr-18 17:00N 47°33' W 122°21'0 0.0
2018-Apr-18 16:30N 47°33' W 122°21'0 0.0
2018-Apr-18 16:00N 47°33' W 122°21'0 0.0
2018-Apr-18 15:30N 47°33' W 122°21'2 4.2
2018-Apr-18 15:00N 47°35' W 122°21'0 0.0
2018-Apr-18 14:30N 47°35' W 122°21'0 0.0
2018-Apr-18 14:00N 47°35' W 122°21'2 4.0
2018-Apr-18 13:30N 47°33' W 122°21'0 0.1
2018-Apr-18 13:00N 47°33' W 122°21'0 0.0
2018-Apr-18 12:30N 47°33' W 122°21'0 0.0
2018-Apr-18 12:00N 47°33' W 122°21'0 0.0
2018-Apr-18 11:30N 47°33' W 122°21'0 0.0
2018-Apr-18 11:00N 47°33' W 122°21'0 0.0
2018-Apr-18 10:30N 47°33' W 122°21'0 0.0
2018-Apr-18 10:00N 47°33' W 122°21'2 3.2
2018-Apr-18 09:30N 47°35' W 122°22'2 3.5
2018-Apr-18 09:00N 47°36' W 122°24'3 6.0
2018-Apr-18 08:30N 47°34' W 122°26'4 7.3
2018-Apr-18 08:00N 47°31' W 122°29'4 8.0
2018-Apr-18 07:30N 47°27' W 122°31'4 7.7
2018-Apr-18 07:00N 47°23' W 122°32'4 8.5
2018-Apr-18 06:30N 47°19' W 122°33'4 8.9
2018-Apr-18 06:00N 47°14' W 122°35'4 7.1
2018-Apr-18 05:30N 47°12' W 122°38'10 6.6
2018-Apr-18 03:59N 47°10' W 122°53'3 6.2
2018-Apr-18 03:29N 47°12' W 122°56'2 3.8
2018-Apr-18 03:00N 47°12' W 122°58'1 3.0
2018-Apr-18 02:30N 47°12' W 123°01'2 4.0
2018-Apr-18 02:00N 47°12' W 123°03'1 2.3
2018-Apr-18 01:30N 47°13' W 123°05'0 0.0
2018-Apr-17 13:21N 47°13' W 123°05'0 0.1
2018-Apr-17 13:00N 47°13' W 123°05'  
2018-Apr-13 17:51N 47°13' W 123°05'0 0.8
2018-Apr-13 17:30N 47°13' W 123°04'0 0.0
2018-Apr-13 11:16N 47°13' W 123°05'0 0.9
2018-Apr-13 11:00N 47°13' W 123°04'3 5.8
2018-Apr-13 10:30N 47°12' W 123°00'3 6.2
2018-Apr-13 10:00N 47°11' W 122°56'11 7.3
2018-Apr-13 08:27N 47°11' W 122°39'4 9.1
2018-Apr-13 08:00N 47°14' W 122°35'511.0
2018-Apr-13 07:30N 47°19' W 122°33'4 8.4
2018-Apr-13 07:00N 47°23' W 122°32'4 8.1
2018-Apr-13 06:30N 47°27' W 122°31'4 7.9
2018-Apr-13 06:00N 47°31' W 122°29'4 8.3
2018-Apr-13 05:31N 47°35' W 122°26'3 5.7
2018-Apr-13 05:00N 47°35' W 122°22'1 2.8
2018-Apr-13 04:30N 47°33' W 122°21'0 0.0
2018-Apr-13 04:00N 47°33' W 122°21'0 0.0
2018-Apr-13 03:14N 47°33' W 122°21'0 0.0
2018-Apr-13 02:59N 47°33' W 122°21'0 0.0
2018-Apr-13 02:30N 47°33' W 122°21'0 0.0
2018-Apr-13 02:00N 47°33' W 122°21'0 0.0
2018-Apr-13 01:28N 47°33' W 122°21'0 0.0
2018-Apr-13 01:00N 47°33' W 122°21'0 0.0
2018-Apr-13 00:30N 47°33' W 122°21'0 0.0
2018-Apr-12 23:59N 47°33' W 122°21'0 0.0
2018-Apr-12 23:30N 47°33' W 122°21'0 0.0
2018-Apr-12 23:00N 47°33' W 122°21'0 0.0
2018-Apr-12 22:28N 47°33' W 122°21'0 0.0
2018-Apr-12 22:00N 47°33' W 122°21'0 0.0
2018-Apr-12 21:30N 47°33' W 122°21'0 0.0
2018-Apr-12 21:00N 47°33' W 122°21'0 0.0
2018-Apr-12 20:29N 47°33' W 122°21'0 0.0
2018-Apr-12 20:00N 47°33' W 122°21'0 0.1
2018-Apr-12 19:30N 47°33' W 122°21'1 2.1
2018-Apr-12 19:00N 47°34' W 122°21'2 3.1
2018-Apr-12 18:30N 47°36' W 122°22'2 4.0
2018-Apr-12 18:00N 47°35' W 122°25'2 4.8
2018-Apr-12 17:30N 47°33' W 122°27'3 5.7
2018-Apr-12 17:00N 47°30' W 122°29'3 6.4
2018-Apr-12 16:30N 47°27' W 122°31'3 6.4
2018-Apr-12 16:00N 47°24' W 122°32'3 6.7
2018-Apr-12 15:30N 47°21' W 122°33'4 7.9
2018-Apr-12 15:00N 47°17' W 122°33'4 8.2
2018-Apr-12 14:31N 47°13' W 122°35'12 5.8
2018-Apr-12 12:23N 47°10' W 122°52'2 6.3
2018-Apr-12 12:00N 47°11' W 122°56'2 3.9
2018-Apr-12 11:30N 47°12' W 122°58'2 3.9
2018-Apr-12 11:00N 47°12' W 123°00'2 4.8
2018-Apr-12 10:30N 47°12' W 123°04'1 0.0
2018-Apr-11 08:34N 47°13' W 123°05'0 1.5
2018-Apr-11 08:30N 47°13' W 123°05'3 6.2
2018-Apr-11 08:00N 47°12' W 123°00'3 6.1
2018-Apr-11 07:30N 47°12' W 122°56'11 6.7
2018-Apr-11 05:50N 47°11' W 122°39'3 9.1
2018-Apr-11 05:30N 47°13' W 122°36'5 9.9
2018-Apr-11 05:00N 47°18' W 122°33'4 8.5
2018-Apr-11 04:30N 47°22' W 122°32'4 7.9
2018-Apr-11 04:00N 47°26' W 122°31'  

Dump ship's entire track history